Time;durP1;ratioP1;P1;durP2;ratioP2;P2;SDS_P1;SDS_P2;PMS_P1;PMS_P2;Temp;Humidity;BMP_temperature;BMP_pressure;BME280_temperature;BME280_humidity;BME280_pressure;Samples;Min_cycle;Max_cycle;Signal;HPM_P1;HPM_P2
2023/06/06 00:02:19;;;;;;;;;;;17.60;55.70;;;;;;5051484;28;20004;-67
2023/06/06 00:04:47;;;;;;;;;;;17.50;56.10;;;;;;5051871;28;19924;-67
2023/06/06 00:07:13;;;;;;;;;;;17.50;56.40;;;;;;5051795;28;19913;-68
2023/06/06 00:09:39;;;;;;;;;;;17.50;56.10;;;;;;5051634;28;20332;-68
2023/06/06 00:12:05;;;;;;;;;;;17.40;55.60;;;;;;5051424;28;19913;-68
2023/06/06 00:14:31;;;;;;;;;;;17.30;55.30;;;;;;5051448;28;19927;-68
2023/06/06 00:16:58;;;;;;;;;;;17.30;55.00;;;;;;5051468;28;20288;-67
2023/06/06 00:19:23;;;;;;;;;;;17.20;54.90;;;;;;5054960;28;20039;-68
2023/06/06 00:21:49;;;;;;;;;;;17.00;54.70;;;;;;5055478;28;20348;-67
2023/06/06 00:24:15;;;;;;;;;;;17.00;54.50;;;;;;5054571;28;20311;-67
2023/06/06 00:26:41;;;;;;;;;;;16.80;54.30;;;;;;5055073;28;19917;-67
2023/06/06 00:29:06;;;;;;;;;;;16.70;54.20;;;;;;5052501;28;19928;-67
2023/06/06 00:31:32;;;;;;;;;;;16.70;54.20;;;;;;5055142;28;19936;-68
2023/06/06 00:33:57;;;;;;;;;;;16.50;54.20;;;;;;5074230;28;19916;-67
2023/06/06 00:36:23;;;;;;;;;;;16.50;54.30;;;;;;5066194;28;19913;-67
2023/06/06 00:38:49;;;;;;;;;;;16.40;54.60;;;;;;5054593;28;20325;-66
2023/06/06 00:41:15;;;;;;;;;;;16.30;54.60;;;;;;5054372;28;19917;-67
2023/06/06 00:43:40;;;;;;;;;;;16.30;54.80;;;;;;5054695;28;20288;-66
2023/06/06 00:46:06;;;;;;;;;;;16.30;55.10;;;;;;5055565;28;19960;-67
2023/06/06 00:48:32;;;;;;;;;;;16.20;55.20;;;;;;5054790;28;19959;-67
2023/06/06 00:50:58;;;;;;;;;;;16.20;55.80;;;;;;5054695;28;19917;-66
2023/06/06 00:53:23;;;;;;;;;;;16.20;55.80;;;;;;5054826;28;19935;-66
2023/06/06 00:55:48;;;;;;;;;;;16.10;55.50;;;;;;5054562;28;19999;-66
2023/06/06 00:58:15;;;;;;;;;;;16.10;55.40;;;;;;5054870;28;19955;-67
2023/06/06 01:00:41;;;;;;;;;;;16.00;55.50;;;;;;5055330;28;20004;-65
2023/06/06 01:03:09;;;;;;;;;;;16.00;55.80;;;;;;5054846;28;20369;-65
2023/06/06 01:05:36;;;;;;;;;;;16.00;56.30;;;;;;5054028;28;19912;-65
2023/06/06 01:08:01;;;;;;;;;;;16.00;57.50;;;;;;5054723;28;19921;-65
2023/06/06 01:10:28;;;;;;;;;;;16.00;57.80;;;;;;5046292;28;20004;-65
2023/06/06 01:13:02;;;;;;;;;;;16.00;57.80;;;;;;5054526;28;20478;-65
2023/06/06 01:15:28;;;;;;;;;;;16.00;58.70;;;;;;5054789;28;19912;-65
2023/06/06 01:17:53;;;;;;;;;;;15.90;59.20;;;;;;5054344;28;19913;-66
2023/06/06 01:20:21;;;;;;;;;;;15.90;59.30;;;;;;5054690;28;19920;-65
2023/06/06 01:22:48;;;;;;;;;;;15.90;58.80;;;;;;5053488;28;19934;-66
2023/06/06 01:25:19;;;;;;;;;;;15.80;58.50;;;;;;5054156;28;19912;-65
2023/06/06 01:27:53;;;;;;;;;;;15.80;58.20;;;;;;5054258;28;19999;-64
2023/06/06 01:30:20;;;;;;;;;;;15.70;57.90;;;;;;5053406;28;20043;-65
2023/06/06 01:32:52;;;;;;;;;;;15.70;57.80;;;;;;5053445;28;19928;-65
2023/06/06 01:35:35;;;;;;;;;;;15.60;57.70;;;;;;5054221;28;20003;-65
2023/06/06 01:38:03;;;;;;;;;;;15.50;57.80;;;;;;5052280;28;20380;-65
2023/06/06 01:40:31;;;;;;;;;;;15.50;57.80;;;;;;5054166;28;20008;-66
2023/06/06 01:42:57;;;;;;;;;;;15.50;58.10;;;;;;5053692;28;19921;-66
2023/06/06 01:45:25;;;;;;;;;;;15.40;58.20;;;;;;5054086;28;19967;-66
2023/06/06 01:47:50;;;;;;;;;;;15.40;57.90;;;;;;5053336;28;20261;-66
2023/06/06 01:50:16;;;;;;;;;;;15.30;57.90;;;;;;5054270;28;19919;-66
2023/06/06 01:52:42;;;;;;;;;;;15.30;57.70;;;;;;5053628;28;19920;-68
2023/06/06 01:55:08;;;;;;;;;;;15.20;57.40;;;;;;5054217;28;19919;-66
2023/06/06 01:57:33;;;;;;;;;;;15.10;57.40;;;;;;5053820;28;19920;-66
2023/06/06 01:59:59;;;;;;;;;;;15.10;57.50;;;;;;5052307;28;19948;-66
2023/06/06 02:02:25;;;;;;;;;;;15.10;57.30;;;;;;5053608;28;19913;-65
2023/06/06 02:04:51;;;;;;;;;;;15.00;57.30;;;;;;5053466;28;19920;-66
2023/06/06 02:07:16;;;;;;;;;;;15.00;57.10;;;;;;5053488;28;19992;-66
2023/06/06 02:09:42;;;;;;;;;;;14.90;57.10;;;;;;5053937;28;20383;-66
2023/06/06 02:12:08;;;;;;;;;;;14.90;57.00;;;;;;5053456;28;19912;-66
2023/06/06 02:14:34;;;;;;;;;;;14.80;56.90;;;;;;5053357;28;19917;-66
2023/06/06 02:17:00;;;;;;;;;;;14.80;57.00;;;;;;5053390;28;19913;-66
2023/06/06 02:19:26;;;;;;;;;;;14.70;57.10;;;;;;5053363;28;20004;-66
2023/06/06 02:21:51;;;;;;;;;;;14.70;57.10;;;;;;5053270;28;20408;-66
2023/06/06 02:24:17;;;;;;;;;;;14.60;57.40;;;;;;5053287;28;19936;-67
2023/06/06 02:26:42;;;;;;;;;;;14.60;57.40;;;;;;5053455;28;19923;-66
2023/06/06 02:29:08;;;;;;;;;;;14.60;57.40;;;;;;5053355;28;19917;-66
2023/06/06 02:31:36;;;;;;;;;;;14.60;57.40;;;;;;5053027;28;19924;-66
2023/06/06 02:34:04;;;;;;;;;;;14.50;57.40;;;;;;5072911;28;19923;-66
2023/06/06 02:36:30;;;;;;;;;;;14.50;57.50;;;;;;5063010;28;19939;-66
2023/06/06 02:38:56;;;;;;;;;;;14.50;57.60;;;;;;5052863;28;19913;-66
2023/06/06 02:41:22;;;;;;;;;;;14.50;57.30;;;;;;5052820;28;19992;-66
2023/06/06 02:43:48;;;;;;;;;;;14.40;57.20;;;;;;5052908;28;19956;-66
2023/06/06 02:46:13;;;;;;;;;;;14.30;57.40;;;;;;5052796;28;20000;-67
2023/06/06 02:48:38;;;;;;;;;;;14.30;57.50;;;;;;5051947;28;19920;-66
2023/06/06 02:51:04;;;;;;;;;;;14.30;57.80;;;;;;5052064;28;20223;-66
2023/06/06 02:53:32;;;;;;;;;;;14.30;58.10;;;;;;5052101;28;19924;-66
2023/06/06 02:55:58;;;;;;;;;;;14.30;57.90;;;;;;5052561;28;19979;-66
2023/06/06 02:58:24;;;;;;;;;;;14.30;57.70;;;;;;5048185;28;19979;-66
2023/06/06 03:00:50;;;;;;;;;;;14.30;58.30;;;;;;5051962;28;20038;-66
2023/06/06 03:03:15;;;;;;;;;;;14.30;58.30;;;;;;5052237;28;20015;-66
2023/06/06 03:05:42;;;;;;;;;;;14.30;58.90;;;;;;5052951;28;20356;-67
2023/06/06 03:08:07;;;;;;;;;;;14.30;59.40;;;;;;5053089;28;20323;-66
2023/06/06 03:10:33;;;;;;;;;;;14.30;59.50;;;;;;5048347;28;19971;-67
2023/06/06 03:12:58;;;;;;;;;;;14.30;59.60;;;;;;5032820;28;20386;-66
2023/06/06 03:15:25;;;;;;;;;;;14.30;59.60;;;;;;5032278;28;19917;-67
2023/06/06 03:17:50;;;;;;;;;;;14.30;59.30;;;;;;5032509;28;20278;-67
2023/06/06 03:20:16;;;;;;;;;;;14.30;58.90;;;;;;5032643;28;19963;-66
2023/06/06 03:22:42;;;;;;;;;;;14.30;58.70;;;;;;5036141;28;20339;-66
2023/06/06 03:25:07;;;;;;;;;;;14.30;58.60;;;;;;5052335;28;20007;-66
2023/06/06 03:27:32;;;;;;;;;;;14.30;58.90;;;;;;5052045;28;19951;-66
2023/06/06 03:29:58;;;;;;;;;;;14.30;58.90;;;;;;5052174;28;19913;-66
2023/06/06 03:32:23;;;;;;;;;;;14.40;58.80;;;;;;5058562;28;19912;-66
2023/06/06 03:34:49;;;;;;;;;;;14.40;59.20;;;;;;5072001;28;20279;-66
2023/06/06 03:37:14;;;;;;;;;;;14.60;59.50;;;;;;5055871;28;20383;-66
2023/06/06 03:39:40;;;;;;;;;;;14.70;59.60;;;;;;5051987;28;20225;-67
2023/06/06 03:42:07;;;;;;;;;;;14.80;59.40;;;;;;5051762;28;20386;-66
2023/06/06 03:44:32;;;;;;;;;;;14.90;59.30;;;;;;5051761;28;19913;-66
2023/06/06 03:46:58;;;;;;;;;;;15.00;59.40;;;;;;5051912;28;20257;-66
2023/06/06 03:49:23;;;;;;;;;;;15.20;59.40;;;;;;5051884;28;19913;-66
2023/06/06 03:51:48;;;;;;;;;;;15.30;59.40;;;;;;5051061;28;19964;-66
2023/06/06 03:54:14;;;;;;;;;;;15.50;59.50;;;;;;5050980;28;19984;-66
2023/06/06 03:56:42;;;;;;;;;;;15.70;59.40;;;;;;5051231;28;19956;-67
2023/06/06 03:59:11;;;;;;;;;;;15.90;59.20;;;;;;5051211;28;20319;-66
2023/06/06 04:01:37;;;;;;;;;;;16.10;59.20;;;;;;5051311;28;19923;-67
2023/06/06 04:04:02;;;;;;;;;;;16.30;59.10;;;;;;5051733;28;19913;-66
2023/06/06 04:06:28;;;;;;;;;;;16.60;59.00;;;;;;5050962;28;19913;-66
2023/06/06 04:08:53;;;;;;;;;;;16.80;58.90;;;;;;5051048;28;19920;-66
2023/06/06 04:11:18;;;;;;;;;;;17.10;58.80;;;;;;5050981;28;19921;-66
2023/06/06 04:13:44;;;;;;;;;;;17.30;58.70;;;;;;5051361;28;19986;-66
2023/06/06 04:16:10;;;;;;;;;;;17.50;58.60;;;;;;5051017;28;19956;-66
2023/06/06 04:18:35;;;;;;;;;;;17.80;58.40;;;;;;5051326;28;19913;-66
2023/06/06 04:21:01;;;;;;;;;;;17.90;58.10;;;;;;5050705;28;20368;-67
2023/06/06 04:23:26;;;;;;;;;;;18.20;57.90;;;;;;5046658;28;19954;-66
2023/06/06 04:25:52;;;;;;;;;;;18.30;57.70;;;;;;5050521;28;19920;-67
2023/06/06 04:28:19;;;;;;;;;;;18.60;57.40;;;;;;5050474;28;19913;-66
2023/06/06 04:30:52;;;;;;;;;;;18.80;57.20;;;;;;5045883;28;19913;-67
2023/06/06 04:33:18;;;;;;;;;;;19.10;56.80;;;;;;5047700;28;20273;-67
2023/06/06 04:35:44;;;;;;;;;;;19.30;56.40;;;;;;5036764;28;19912;-67
2023/06/06 04:38:10;;;;;;;;;;;19.60;55.90;;;;;;5064854;28;20265;-69
2023/06/06 04:40:36;;;;;;;;;;;20.00;55.30;;;;;;5051897;28;19967;-67
2023/06/06 04:43:02;;;;;;;;;;;20.20;54.70;;;;;;5051219;28;19970;-67
2023/06/06 04:45:28;;;;;;;;;;;20.50;54.40;;;;;;5050846;28;19920;-67
2023/06/06 04:47:55;;;;;;;;;;;21.00;54.20;;;;;;5051144;28;19913;-67
2023/06/06 04:50:21;;;;;;;;;;;21.40;53.70;;;;;;5045313;28;20012;-67
2023/06/06 04:52:47;;;;;;;;;;;21.90;52.80;;;;;;5031545;28;19967;-67
2023/06/06 04:55:13;;;;;;;;;;;22.30;52.00;;;;;;5032201;28;19959;-68
2023/06/06 04:57:40;;;;;;;;;;;22.70;51.00;;;;;;5031884;28;20000;-67
2023/06/06 05:00:09;;;;;;;;;;;23.00;49.90;;;;;;5032792;28;19999;-67
2023/06/06 05:02:35;;;;;;;;;;;23.40;49.10;;;;;;5051398;28;19923;-67
2023/06/06 05:05:02;;;;;;;;;;;23.70;47.80;;;;;;5053011;28;19913;-67
2023/06/06 05:07:28;;;;;;;;;;;24.00;47.60;;;;;;5052424;28;19971;-67
2023/06/06 05:09:54;;;;;;;;;;;24.30;46.70;;;;;;5055234;28;19920;-67
2023/06/06 05:12:23;;;;;;;;;;;24.50;46.00;;;;;;5055342;28;19956;-67
2023/06/06 05:14:49;;;;;;;;;;;24.80;45.50;;;;;;5054793;28;19921;-67
2023/06/06 05:17:17;;;;;;;;;;;25.20;44.50;;;;;;5054586;28;19991;-66
2023/06/06 05:19:44;;;;;;;;;;;25.50;43.80;;;;;;5050346;28;19917;-66
2023/06/06 05:22:09;;;;;;;;;;;25.80;43.40;;;;;;5034596;28;19952;-66
2023/06/06 05:24:35;;;;;;;;;;;26.10;42.60;;;;;;5037289;28;19931;-67
2023/06/06 05:27:00;;;;;;;;;;;26.30;40.80;;;;;;5054515;28;19924;-67
2023/06/06 05:29:26;;;;;;;;;;;26.40;40.80;;;;;;5054035;28;19999;-67
2023/06/06 05:31:52;;;;;;;;;;;26.60;39.90;;;;;;5054308;28;19920;-67
2023/06/06 05:34:17;;;;;;;;;;;26.80;39.40;;;;;;5054366;28;19916;-68
2023/06/06 05:36:43;;;;;;;;;;;26.90;39.10;;;;;;5065741;28;20384;-66
2023/06/06 05:39:08;;;;;;;;;;;27.10;38.80;;;;;;5062963;28;19913;-66
2023/06/06 05:41:34;;;;;;;;;;;27.30;38.00;;;;;;5051846;28;20391;-66
2023/06/06 05:43:59;;;;;;;;;;;27.40;37.40;;;;;;5048814;28;19912;-67
2023/06/06 05:46:25;;;;;;;;;;;27.60;37.30;;;;;;5050370;28;19917;-67
2023/06/06 05:48:50;;;;;;;;;;;27.80;37.00;;;;;;5057327;28;19917;-67
2023/06/06 05:51:16;;;;;;;;;;;27.90;36.30;;;;;;5053716;28;19972;-66
2023/06/06 05:53:44;;;;;;;;;;;28.00;35.90;;;;;;5053418;28;19967;-66
2023/06/06 05:56:10;;;;;;;;;;;28.20;35.70;;;;;;5053779;28;19913;-66
2023/06/06 05:58:36;;;;;;;;;;;28.40;35.70;;;;;;5054005;28;19947;-67
2023/06/06 06:01:01;;;;;;;;;;;28.60;35.30;;;;;;5056390;28;19963;-67
2023/06/06 06:03:28;;;;;;;;;;;28.80;35.10;;;;;;5061893;28;19916;-67
2023/06/06 06:06:04;;;;;;;;;;;29.20;34.70;;;;;;5051123;28;19959;-67
2023/06/06 06:08:31;;;;;;;;;;;29.30;34.10;;;;;;5052979;28;20362;-67
2023/06/06 06:10:56;;;;;;;;;;;29.60;33.80;;;;;;5051391;28;19921;-67
2023/06/06 06:13:22;;;;;;;;;;;29.80;33.50;;;;;;5052509;28;19917;-66
2023/06/06 06:15:47;;;;;;;;;;;30.00;33.20;;;;;;5049348;28;19924;-68
2023/06/06 06:18:13;;;;;;;;;;;30.20;33.10;;;;;;5039336;28;19912;-67
2023/06/06 06:20:38;;;;;;;;;;;30.40;32.60;;;;;;5053185;28;19913;-67
2023/06/06 06:23:04;;;;;;;;;;;30.70;32.40;;;;;;5049187;28;19962;-68
2023/06/06 06:25:29;;;;;;;;;;;31.00;32.50;;;;;;5050386;28;19913;-66
2023/06/06 06:27:55;;;;;;;;;;;31.40;32.50;;;;;;5036310;28;20355;-67
2023/06/06 06:30:20;;;;;;;;;;;31.80;31.30;;;;;;5065517;28;20040;-67
2023/06/06 06:32:46;;;;;;;;;;;32.00;30.00;;;;;;5052042;28;19917;-67
2023/06/06 06:35:11;;;;;;;;;;;31.90;29.80;;;;;;5051393;28;19912;-66
2023/06/06 06:37:37;;;;;;;;;;;32.00;29.80;;;;;;5053525;28;20185;-67
2023/06/06 06:40:09;;;;;;;;;;;32.20;29.50;;;;;;5048582;28;19935;-68
2023/06/06 06:42:39;;;;;;;;;;;32.30;29.40;;;;;;5052202;28;19921;-67
2023/06/06 06:45:05;;;;;;;;;;;32.50;29.00;;;;;;5053191;28;19913;-69
2023/06/06 06:47:31;;;;;;;;;;;32.70;28.90;;;;;;5052141;28;19917;-66
2023/06/06 06:49:57;;;;;;;;;;;33.10;28.60;;;;;;5052955;28;20258;-67
2023/06/06 06:52:22;;;;;;;;;;;33.20;27.80;;;;;;5051639;28;19917;-67
2023/06/06 06:54:53;;;;;;;;;;;33.30;28.00;;;;;;5031455;28;19917;-67
2023/06/06 06:57:20;;;;;;;;;;;33.40;27.60;;;;;;5053549;28;19948;-69
2023/06/06 06:59:45;;;;;;;;;;;33.30;27.20;;;;;;5054095;28;20251;-68
2023/06/06 07:02:11;;;;;;;;;;;33.00;27.30;;;;;;5043329;28;19978;-67
2023/06/06 07:04:36;;;;;;;;;;;32.80;27.60;;;;;;5048337;28;19917;-67
2023/06/06 07:07:03;;;;;;;;;;;32.50;27.70;;;;;;5050116;28;20398;-67
2023/06/06 07:09:28;;;;;;;;;;;32.20;27.90;;;;;;5052308;28;19917;-67
2023/06/06 07:11:54;;;;;;;;;;;31.90;28.20;;;;;;5050472;28;19923;-67
2023/06/06 07:14:20;;;;;;;;;;;31.50;28.50;;;;;;5050300;28;19999;-67
2023/06/06 07:16:48;;;;;;;;;;;31.00;28.90;;;;;;5051626;28;20468;-68
2023/06/06 07:19:14;;;;;;;;;;;30.40;29.50;;;;;;5051972;28;20348;-67
2023/06/06 07:21:39;;;;;;;;;;;29.90;30.10;;;;;;5052516;28;20051;-67
2023/06/06 07:24:05;;;;;;;;;;;29.60;30.70;;;;;;5041721;28;19920;-66
2023/06/06 07:26:30;;;;;;;;;;;29.30;31.30;;;;;;5047492;28;19960;-67
2023/06/06 07:28:56;;;;;;;;;;;29.40;31.90;;;;;;5039071;28;19970;-67
2023/06/06 07:31:21;;;;;;;;;;;29.60;32.30;;;;;;5051904;28;20064;-67
2023/06/06 07:33:48;;;;;;;;;;;29.90;31.90;;;;;;5051636;28;20359;-69
2023/06/06 07:36:13;;;;;;;;;;;29.90;31.30;;;;;;5051292;28;19920;-67
2023/06/06 07:38:39;;;;;;;;;;;29.80;31.60;;;;;;5052084;28;19908;-66
2023/06/06 07:41:04;;;;;;;;;;;30.10;31.90;;;;;;5051649;28;19917;-66
2023/06/06 07:43:30;;;;;;;;;;;30.70;32.10;;;;;;5051556;28;20372;-66
2023/06/06 07:45:55;;;;;;;;;;;31.30;31.70;;;;;;5048668;28;19917;-67
2023/06/06 07:48:20;;;;;;;;;;;32.00;30.90;;;;;;5051771;28;19971;-67
2023/06/06 07:50:46;;;;;;;;;;;32.70;29.50;;;;;;5050943;28;20304;-68
2023/06/06 07:53:11;;;;;;;;;;;33.20;28.70;;;;;;5051870;28;19967;-66
2023/06/06 07:55:37;;;;;;;;;;;33.60;28.40;;;;;;5050866;28;20008;-65
2023/06/06 07:58:10;;;;;;;;;;;34.10;27.20;;;;;;5051580;28;19913;-65
2023/06/06 08:00:36;;;;;;;;;;;34.40;26.70;;;;;;5050956;28;19912;-65
2023/06/06 08:03:01;;;;;;;;;;;34.30;26.00;;;;;;5051700;28;19920;-66
2023/06/06 08:05:26;;;;;;;;;;;34.20;26.20;;;;;;5032914;28;20384;-66
2023/06/06 08:07:53;;;;;;;;;;;34.30;26.10;;;;;;5033641;28;20005;-66
2023/06/06 08:10:18;;;;;;;;;;;34.50;25.90;;;;;;5052470;28;19913;-69
2023/06/06 08:12:44;;;;;;;;;;;34.70;25.60;;;;;;5034350;28;19917;-67
2023/06/06 08:15:10;;;;;;;;;;;35.00;25.50;;;;;;5051881;28;19921;-65
2023/06/06 08:17:36;;;;;;;;;;;35.40;25.00;;;;;;5050664;28;19916;-67
2023/06/06 08:20:03;;;;;;;;;;;35.70;24.60;;;;;;5051809;28;19979;-67
2023/06/06 08:22:29;;;;;;;;;;;35.80;24.00;;;;;;5050607;28;20276;-67
2023/06/06 08:24:54;;;;;;;;;;;35.90;24.00;;;;;;5051593;28;20007;-67
2023/06/06 08:27:20;;;;;;;;;;;36.00;23.60;;;;;;5049901;28;19924;-67
2023/06/06 08:29:45;;;;;;;;;;;36.00;23.60;;;;;;5050669;28;19921;-67
2023/06/06 08:32:12;;;;;;;;;;;36.20;23.50;;;;;;5051393;28;19966;-66
2023/06/06 08:34:37;;;;;;;;;;;36.30;23.60;;;;;;5050369;28;19921;-66
2023/06/06 08:37:03;;;;;;;;;;;36.60;23.60;;;;;;5055984;28;19917;-66
2023/06/06 08:39:29;;;;;;;;;;;37.00;23.50;;;;;;5053552;28;19924;-66
2023/06/06 08:41:55;;;;;;;;;;;37.20;22.70;;;;;;5055301;28;20478;-68
2023/06/06 08:44:21;;;;;;;;;;;37.20;22.60;;;;;;5054590;28;19917;-70
2023/06/06 08:46:51;;;;;;;;;;;37.20;22.70;;;;;;5054060;28;19913;-70
2023/06/06 08:49:18;;;;;;;;;;;37.40;22.60;;;;;;5055444;28;19913;-70
2023/06/06 08:51:45;;;;;;;;;;;37.30;22.30;;;;;;5052386;28;19916;-69
2023/06/06 08:54:10;;;;;;;;;;;37.30;22.20;;;;;;5036945;28;19920;-69
2023/06/06 08:56:37;;;;;;;;;;;37.50;22.50;;;;;;5055007;28;19939;-70
2023/06/06 08:59:03;;;;;;;;;;;37.80;22.30;;;;;;5053696;28;19912;-68
2023/06/06 09:01:30;;;;;;;;;;;37.90;21.80;;;;;;5054650;28;19921;-69
2023/06/06 09:03:56;;;;;;;;;;;38.30;21.90;;;;;;5053536;28;20386;-69
2023/06/06 09:06:21;;;;;;;;;;;38.50;21.60;;;;;;5054825;28;19917;-69
2023/06/06 09:08:47;;;;;;;;;;;38.50;21.20;;;;;;5052913;28;20388;-69
2023/06/06 09:11:13;;;;;;;;;;;38.30;21.30;;;;;;5054756;28;19916;-69
2023/06/06 09:13:41;;;;;;;;;;;38.00;21.20;;;;;;5053667;28;20395;-68
2023/06/06 09:16:07;;;;;;;;;;;37.50;21.50;;;;;;5054616;28;20368;-68
2023/06/06 09:18:38;;;;;;;;;;;37.10;21.80;;;;;;5053609;28;19909;-68
2023/06/06 09:21:04;;;;;;;;;;;36.60;22.00;;;;;;5054573;28;19935;-69
2023/06/06 09:23:30;;;;;;;;;;;36.20;22.50;;;;;;5053298;28;19913;-69
2023/06/06 09:25:56;;;;;;;;;;;36.10;23.00;;;;;;5036349;28;20272;-69
2023/06/06 09:28:34;;;;;;;;;;;36.00;23.30;;;;;;5053306;28;19917;-69
2023/06/06 09:30:59;;;;;;;;;;;35.90;23.30;;;;;;5054094;28;19912;-69
2023/06/06 09:33:25;;;;;;;;;;;36.00;23.40;;;;;;5053340;28;20297;-70
2023/06/06 09:35:50;;;;;;;;;;;36.10;23.50;;;;;;5040442;28;20437;-69
2023/06/06 09:38:17;;;;;;;;;;;36.20;23.40;;;;;;5056983;28;20003;-69
2023/06/06 09:40:50;;;;;;;;;;;36.20;23.20;;;;;;5053538;28;19913;-69
2023/06/06 09:43:22;;;;;;;;;;;36.30;23.30;;;;;;5053771;28;19921;-69
2023/06/06 09:45:49;;;;;;;;;;;36.30;23.20;;;;;;5052900;28;19923;-69
2023/06/06 09:48:19;;;;;;;;;;;36.30;23.10;;;;;;5051206;28;20463;-69
2023/06/06 09:50:44;;;;;;;;;;;36.20;23.20;;;;;;5052523;28;20003;-69
2023/06/06 09:53:11;;;;;;;;;;;36.10;23.20;;;;;;5053500;28;20048;-69
2023/06/06 09:55:37;;;;;;;;;;;36.00;23.60;;;;;;5053363;28;19912;-69
2023/06/06 09:58:02;;;;;;;;;;;35.90;23.60;;;;;;5052711;28;19923;-69
2023/06/06 10:00:29;;;;;;;;;;;35.80;23.70;;;;;;5054226;28;20003;-69
2023/06/06 10:02:54;;;;;;;;;;;35.70;23.80;;;;;;5053035;28;19916;-69
2023/06/06 10:05:20;;;;;;;;;;;35.60;23.90;;;;;;5052974;28;19917;-68
2023/06/06 10:07:45;;;;;;;;;;;35.60;24.00;;;;;;5035439;28;20299;-69
2023/06/06 10:10:12;;;;;;;;;;;35.50;23.90;;;;;;5053344;28;19913;-69
2023/06/06 10:12:38;;;;;;;;;;;35.40;23.90;;;;;;5052531;28;20375;-69
2023/06/06 10:15:05;;;;;;;;;;;35.30;23.90;;;;;;5053507;28;20014;-69
2023/06/06 10:17:34;;;;;;;;;;;35.00;24.00;;;;;;5052728;28;20372;-69
2023/06/06 10:20:05;;;;;;;;;;;34.80;24.30;;;;;;5052541;28;19912;-69
2023/06/06 10:22:32;;;;;;;;;;;34.70;24.60;;;;;;5052251;28;19921;-69
2023/06/06 10:24:58;;;;;;;;;;;34.60;24.80;;;;;;5051615;28;19948;-69
2023/06/06 10:27:26;;;;;;;;;;;34.40;25.20;;;;;;5052854;28;19964;-69
2023/06/06 10:29:52;;;;;;;;;;;34.30;25.30;;;;;;5053317;28;19913;-69
2023/06/06 10:32:22;;;;;;;;;;;34.30;25.60;;;;;;5051766;28;20015;-68
2023/06/06 10:34:49;;;;;;;;;;;34.30;25.50;;;;;;5053114;28;19916;-69
2023/06/06 10:37:18;;;;;;;;;;;34.30;25.10;;;;;;5068800;28;19913;-68
2023/06/06 10:39:46;;;;;;;;;;;34.00;25.10;;;;;;5072991;28;19913;-68
2023/06/06 10:42:11;;;;;;;;;;;33.90;25.50;;;;;;5072689;28;19966;-68
2023/06/06 10:44:41;;;;;;;;;;;33.80;25.70;;;;;;5073004;28;20356;-70
2023/06/06 10:47:27;;;;;;;;;;;33.90;25.90;;;;;;5072937;28;19920;-69
2023/06/06 10:50:08;;;;;;;;;;;33.80;25.90;;;;;;5072908;28;19912;-69
2023/06/06 10:52:42;;;;;;;;;;;33.80;26.10;;;;;;5072586;28;20282;-68
2023/06/06 10:55:17;;;;;;;;;;;34.00;26.10;;;;;;5072857;28;19921;-68
2023/06/06 10:58:16;;;;;;;;;;;34.00;26.10;;;;;;5071198;28;20337;-68
2023/06/06 11:00:42;;;;;;;;;;;34.10;25.90;;;;;;5027985;28;19916;-68
2023/06/06 11:03:09;;;;;;;;;;;34.20;25.40;;;;;;5071836;28;19958;-68
2023/06/06 11:05:53;;;;;;;;;;;34.20;25.50;;;;;;5072621;28;20371;-68
2023/06/06 11:08:18;;;;;;;;;;;34.30;25.60;;;;;;5072285;28;20436;-69
2023/06/06 11:10:47;;;;;;;;;;;34.50;25.70;;;;;;5072726;28;20019;-68
2023/06/06 11:13:25;;;;;;;;;;;34.80;25.60;;;;;;5072266;28;22211;-68
2023/06/06 11:15:59;;;;;;;;;;;34.90;25.00;;;;;;5072216;28;20425;-68
2023/06/06 11:18:45;;;;;;;;;;;35.20;24.90;;;;;;5072087;28;19916;-69
2023/06/06 11:21:10;;;;;;;;;;;35.30;24.50;;;;;;5071234;28;19916;-69
2023/06/06 11:23:42;;;;;;;;;;;35.30;23.90;;;;;;5071801;28;20292;-68
2023/06/06 11:26:08;;;;;;;;;;;35.20;23.60;;;;;;5071832;28;20009;-68
2023/06/06 11:28:34;;;;;;;;;;;35.00;24.10;;;;;;5071882;28;19908;-68
2023/06/06 11:31:01;;;;;;;;;;;34.80;24.40;;;;;;5071771;28;19912;-68
2023/06/06 11:33:26;;;;;;;;;;;34.70;24.70;;;;;;5071821;28;19912;-68
2023/06/06 11:35:55;;;;;;;;;;;34.70;25.00;;;;;;5066926;28;20262;-68
2023/06/06 11:38:21;;;;;;;;;;;34.60;25.10;;;;;;5052027;28;19920;-68
2023/06/06 11:40:47;;;;;;;;;;;34.60;25.10;;;;;;5051638;28;19919;-68
2023/06/06 11:43:12;;;;;;;;;;;34.40;24.80;;;;;;5051732;28;20447;-68
2023/06/06 11:45:38;;;;;;;;;;;34.30;24.70;;;;;;5051455;28;19913;-68
2023/06/06 11:48:20;;;;;;;;;;;34.30;24.80;;;;;;5051490;28;20215;-69
2023/06/06 11:50:45;;;;;;;;;;;34.40;24.90;;;;;;5051496;28;19921;-68
2023/06/06 11:53:10;;;;;;;;;;;34.50;25.10;;;;;;5051392;28;20023;-68
2023/06/06 11:55:37;;;;;;;;;;;34.60;25.00;;;;;;5051857;28;20370;-68
2023/06/06 11:58:03;;;;;;;;;;;34.60;24.80;;;;;;5051643;28;20000;-69
2023/06/06 12:00:29;;;;;;;;;;;34.60;25.00;;;;;;5051932;28;19973;-69
2023/06/06 12:02:55;;;;;;;;;;;34.70;24.80;;;;;;5051806;28;20003;-69
2023/06/06 12:05:22;;;;;;;;;;;34.70;24.60;;;;;;5051854;28;19917;-69
2023/06/06 12:07:50;;;;;;;;;;;34.70;24.40;;;;;;5051329;28;19913;-68
2023/06/06 12:10:21;;;;;;;;;;;34.50;24.40;;;;;;5051366;28;19916;-69
2023/06/06 12:12:48;;;;;;;;;;;34.30;24.60;;;;;;5051450;28;19920;-69
2023/06/06 12:15:13;;;;;;;;;;;34.10;24.80;;;;;;5053486;28;19913;-68
2023/06/06 12:17:38;;;;;;;;;;;33.80;25.10;;;;;;5055627;28;19924;-68
2023/06/06 12:20:04;;;;;;;;;;;33.80;25.30;;;;;;5055751;28;19940;-68
2023/06/06 12:22:33;;;;;;;;;;;33.70;25.30;;;;;;5054511;28;19924;-68
2023/06/06 12:24:59;;;;;;;;;;;33.70;25.30;;;;;;5055823;28;19909;-69
2023/06/06 12:27:26;;;;;;;;;;;33.50;25.60;;;;;;5055403;28;19917;-69
2023/06/06 12:29:54;;;;;;;;;;;33.40;25.90;;;;;;5055571;28;19958;-69
2023/06/06 12:32:25;;;;;;;;;;;33.40;26.10;;;;;;5055180;28;19923;-69
2023/06/06 12:34:53;;;;;;;;;;;33.50;26.00;;;;;;5055244;28;19924;-69
2023/06/06 12:37:19;;;;;;;;;;;33.50;25.90;;;;;;5071590;28;20295;-69
2023/06/06 12:39:45;;;;;;;;;;;33.60;25.90;;;;;;5075310;28;20347;-69
2023/06/06 12:42:12;;;;;;;;;;;33.60;26.00;;;;;;5074801;28;19925;-69
2023/06/06 12:44:37;;;;;;;;;;;33.50;25.90;;;;;;5075382;28;19913;-67
2023/06/06 12:47:03;;;;;;;;;;;33.40;25.80;;;;;;5075118;28;19913;-67
2023/06/06 12:49:28;;;;;;;;;;;33.40;25.90;;;;;;5075062;28;19923;-68
2023/06/06 12:51:54;;;;;;;;;;;33.30;25.90;;;;;;5073438;28;19920;-68
2023/06/06 12:54:19;;;;;;;;;;;33.30;26.00;;;;;;5074979;28;20264;-68
2023/06/06 12:56:45;;;;;;;;;;;33.30;26.10;;;;;;5074693;28;19920;-68
2023/06/06 12:59:11;;;;;;;;;;;33.30;26.40;;;;;;5074623;28;19917;-67
2023/06/06 13:01:38;;;;;;;;;;;33.30;26.50;;;;;;5074747;28;19919;-67
2023/06/06 13:04:04;;;;;;;;;;;33.40;26.50;;;;;;5074802;28;19970;-67
2023/06/06 13:06:30;;;;;;;;;;;33.40;25.70;;;;;;5074489;28;19943;-68
2023/06/06 13:08:55;;;;;;;;;;;33.20;25.50;;;;;;5074668;28;19912;-68
2023/06/06 13:11:22;;;;;;;;;;;33.10;25.50;;;;;;5074619;28;19962;-69
2023/06/06 13:13:47;;;;;;;;;;;33.00;25.40;;;;;;5074298;28;20257;-68
2023/06/06 13:16:13;;;;;;;;;;;32.80;25.30;;;;;;5074370;28;20023;-69
2023/06/06 13:18:38;;;;;;;;;;;32.70;25.50;;;;;;5074831;28;19912;-68
2023/06/06 13:21:04;;;;;;;;;;;32.50;25.70;;;;;;5074281;28;19923;-68
2023/06/06 13:23:30;;;;;;;;;;;32.50;25.90;;;;;;5074179;28;19931;-69
2023/06/06 13:25:56;;;;;;;;;;;32.30;26.10;;;;;;5073072;28;19916;-68
2023/06/06 13:28:22;;;;;;;;;;;32.20;26.40;;;;;;5074310;28;20006;-68
2023/06/06 13:30:48;;;;;;;;;;;32.20;26.70;;;;;;5074099;28;20012;-69
2023/06/06 13:33:13;;;;;;;;;;;32.40;26.70;;;;;;5072912;28;19939;-68
2023/06/06 13:35:39;;;;;;;;;;;32.50;26.60;;;;;;5071818;28;19999;-68
2023/06/06 13:38:05;;;;;;;;;;;32.60;26.50;;;;;;5054155;28;19916;-68
2023/06/06 13:40:30;;;;;;;;;;;32.70;26.60;;;;;;5054350;28;19912;-68
2023/06/06 13:42:55;;;;;;;;;;;32.80;26.30;;;;;;5054022;28;19921;-68
2023/06/06 13:45:21;;;;;;;;;;;32.80;26.40;;;;;;5052725;28;19916;-68
2023/06/06 13:47:47;;;;;;;;;;;32.80;26.30;;;;;;5053886;28;19912;-69
2023/06/06 13:50:12;;;;;;;;;;;32.70;26.50;;;;;;5053103;28;19925;-69
2023/06/06 13:52:39;;;;;;;;;;;32.70;26.40;;;;;;5053728;28;19962;-67
2023/06/06 13:55:05;;;;;;;;;;;32.50;26.50;;;;;;5054183;28;20427;-68
2023/06/06 13:57:31;;;;;;;;;;;32.50;26.60;;;;;;5053652;28;19989;-69
2023/06/06 13:59:57;;;;;;;;;;;32.50;26.50;;;;;;5054020;28;20364;-69
2023/06/06 14:02:23;;;;;;;;;;;32.50;26.70;;;;;;5053567;28;19913;-67
2023/06/06 14:04:49;;;;;;;;;;;32.50;26.60;;;;;;5053779;28;19913;-67
2023/06/06 14:07:14;;;;;;;;;;;32.50;26.60;;;;;;5054068;28;19912;-68
2023/06/06 14:09:40;;;;;;;;;;;32.70;26.80;;;;;;5053853;28;20030;-69
2023/06/06 14:12:05;;;;;;;;;;;32.80;26.90;;;;;;5053377;28;20008;-69
2023/06/06 14:14:31;;;;;;;;;;;32.90;26.20;;;;;;5053349;28;20015;-69